Rolinda, California
Current Conditions -  °F | °C
As of 10:53 AM on Thursday 23 Oct 2014 (Local Time) from KFAT Reporting Station
Broken Clouds Broken Clouds  
Wind Chill: 70°   Ceiling: 25000
Heat Index: 70°   Visibility: 10mi
Dew Point: 44°   Wind: 0mph
Humidity: 39%   Direction: NA
Pressure: 30.07"   Gusts: NA
Location:  36.6563°N, 119.904°W
Report Text: KFAT 231753Z 00000KT 10SM FEW150 BKN250 21/07 A3007 RMK AO2 SLP182 MTNS OBSC HZ DSNT N-E-S T02110067 10217 20122 50009
Loading
Personal Weather Stations






























Interactive Weather Map
Tropical Storm Tracking
New forecast layout! Learn more

10-Day Weather Forecast

Advertisements
Track Severe Weather on mobile